createdAt,value
2018-12-25T00:02:00.256Z,5.95
2018-12-25T00:04:33.869Z,5.18
2018-12-25T00:07:07.480Z,3.50
2018-12-25T00:09:40.979Z,4.03
2018-12-25T00:12:14.597Z,5.37
2018-12-25T00:14:48.215Z,4.35
2018-12-25T00:17:22.001Z,6.03
2018-12-25T00:19:55.600Z,4.28
2018-12-25T00:22:29.439Z,5.80
2018-12-25T00:25:03.085Z,4.90
2018-12-25T00:27:36.751Z,3.90
2018-12-25T00:30:10.304Z,3.97
2018-12-25T00:32:44.137Z,6.07
2018-12-25T00:35:17.720Z,3.40
2018-12-25T00:37:51.338Z,4.20
2018-12-25T00:40:25.017Z,4.30
2018-12-25T00:43:00.154Z,6.32
2018-12-25T00:45:33.748Z,5.90
2018-12-25T00:48:07.447Z,4.57
2018-12-25T00:50:41.190Z,6.22
2018-12-25T00:53:14.739Z,6.47
2018-12-25T00:55:48.337Z,6.50
2018-12-25T00:58:21.987Z,5.05
2018-12-25T01:00:55.603Z,6.45
2018-12-25T01:03:29.346Z,7.50
2018-12-25T01:06:02.908Z,6.12
2018-12-25T01:08:37.172Z,5.18
2018-12-25T01:11:11.761Z,7.40
2018-12-25T01:13:45.422Z,5.87
2018-12-25T01:16:19.155Z,3.85
2018-12-25T01:18:52.793Z,7.03
2018-12-25T01:21:26.445Z,5.12
2018-12-25T01:24:00.133Z,4.55
2018-12-25T01:26:33.764Z,6.07
2018-12-25T01:29:08.061Z,9.13
2018-12-25T01:31:41.686Z,5.30
2018-12-25T01:34:15.458Z,7.32
2018-12-25T01:36:49.023Z,8.05
2018-12-25T01:39:23.403Z,5.12
2018-12-25T01:41:56.987Z,6.25
2018-12-25T01:44:30.723Z,5.93
2018-12-25T01:47:04.478Z,5.40
2018-12-25T01:49:38.235Z,8.38
2018-12-25T01:52:11.985Z,4.97
2018-12-25T01:54:45.769Z,5.90
2018-12-25T01:57:19.543Z,11.20
2018-12-25T01:59:53.246Z,6.47
2018-12-25T02:02:27.119Z,5.95
2018-12-25T02:05:00.939Z,6.20
2018-12-25T02:07:34.559Z,6.75
2018-12-25T02:10:08.374Z,8.65
2018-12-25T02:12:42.016Z,8.68
2018-12-25T02:15:15.575Z,4.25
2018-12-25T02:17:49.355Z,8.82
2018-12-25T02:20:23.055Z,5.43
2018-12-25T02:22:56.813Z,6.97
2018-12-25T02:25:30.549Z,6.80
2018-12-25T02:28:04.137Z,7.55
2018-12-25T02:30:37.809Z,6.10
2018-12-25T02:33:12.141Z,6.95
2018-12-25T02:35:45.686Z,7.45
2018-12-25T02:38:19.231Z,5.45
2018-12-25T02:40:52.824Z,5.78
2018-12-25T02:43:26.623Z,6.53
2018-12-25T02:46:00.176Z,6.28
2018-12-25T02:48:34.064Z,3.87
2018-12-25T02:51:08.479Z,7.28
2018-12-25T02:53:43.855Z,5.03
2018-12-25T02:56:17.441Z,6.95
2018-12-25T02:58:51.026Z,6.62
2018-12-25T03:01:24.730Z,8.10
2018-12-25T03:03:59.076Z,8.13
2018-12-25T03:06:33.577Z,7.65
2018-12-25T03:09:07.236Z,6.28
2018-12-25T03:11:40.939Z,7.03
2018-12-25T03:14:14.748Z,7.95
2018-12-25T03:16:48.443Z,7.18
2018-12-25T03:19:22.091Z,6.95
2018-12-25T03:21:55.636Z,7.70
2018-12-25T03:24:29.233Z,7.62
2018-12-25T03:27:02.908Z,7.37
2018-12-25T03:29:37.333Z,5.45
2018-12-25T03:32:10.920Z,5.75
2018-12-25T03:34:44.429Z,6.55
2018-12-25T03:37:18.047Z,8.23
2018-12-25T03:39:51.663Z,6.53
2018-12-25T03:42:25.901Z,6.85
2018-12-25T03:44:59.484Z,11.80
2018-12-25T03:47:33.153Z,4.45
2018-12-25T03:50:10.974Z,9.65
2018-12-25T03:52:40.584Z,6.12
2018-12-25T03:55:14.174Z,7.25
2018-12-25T03:57:47.784Z,6.93
2018-12-25T04:00:21.517Z,9.32
2018-12-25T04:02:55.084Z,6.93
2018-12-25T04:05:28.687Z,6.15
2018-12-25T04:08:02.420Z,9.77
2018-12-25T04:10:36.342Z,7.70
2018-12-25T04:13:10.056Z,10.30
2018-12-25T04:15:43.714Z,12.75
2018-12-25T04:18:17.324Z,9.13
2018-12-25T04:20:51.129Z,9.07
2018-12-25T04:23:24.715Z,11.32
2018-12-25T04:25:58.310Z,9.63
2018-12-25T04:28:32.019Z,7.10
2018-12-25T04:31:05.684Z,7.70
2018-12-25T04:33:39.410Z,11.18
2018-12-25T04:36:13.197Z,7.32
2018-12-25T04:38:46.851Z,11.00
2018-12-25T04:41:20.439Z,6.85
2018-12-25T04:43:54.108Z,9.63
2018-12-25T04:46:27.745Z,10.63
2018-12-25T04:49:01.311Z,7.78
2018-12-25T04:51:35.713Z,5.90
2018-12-25T04:54:10.252Z,5.45
2018-12-25T04:56:44.012Z,6.05
2018-12-25T04:59:17.747Z,6.78
2018-12-25T05:01:51.377Z,8.05
2018-12-25T05:04:24.924Z,9.40
2018-12-25T05:06:58.507Z,7.65
2018-12-25T05:09:32.179Z,7.37
2018-12-25T05:12:05.805Z,9.98
2018-12-25T05:14:39.523Z,10.00
2018-12-25T05:17:13.271Z,8.23
2018-12-25T05:19:46.919Z,7.87
2018-12-25T05:22:20.489Z,10.40
2018-12-25T05:24:55.576Z,5.37
2018-12-25T05:27:29.366Z,8.43
2018-12-25T05:30:03.434Z,10.55
2018-12-25T05:32:37.160Z,10.35
2018-12-25T05:35:10.935Z,6.50
2018-12-25T05:37:44.563Z,11.10
2018-12-25T05:40:19.063Z,9.43
2018-12-25T05:42:52.714Z,7.53
2018-12-25T05:45:26.276Z,6.82
2018-12-25T05:48:00.699Z,8.90
2018-12-25T05:50:34.297Z,9.05
2018-12-25T05:53:07.878Z,11.65
2018-12-25T05:55:41.401Z,8.10
2018-12-25T05:58:15.092Z,8.60
2018-12-25T06:00:48.780Z,9.07
2018-12-25T06:03:22.508Z,8.30
2018-12-25T06:05:57.072Z,8.10
2018-12-25T06:08:31.586Z,11.88
2018-12-25T06:11:05.148Z,9.77
2018-12-25T06:13:38.761Z,6.85
2018-12-25T06:16:12.298Z,7.80
2018-12-25T06:18:45.879Z,12.37
2018-12-25T06:21:20.384Z,8.55
2018-12-25T06:23:54.067Z,12.45
2018-12-25T06:26:28.487Z,11.15
2018-12-25T06:29:02.353Z,11.02
2018-12-25T06:31:36.192Z,10.82
2018-12-25T06:34:10.086Z,13.48
2018-12-25T06:36:44.451Z,8.48
2018-12-25T06:39:17.953Z,12.27
2018-12-25T06:41:51.511Z,8.82
2018-12-25T06:44:25.090Z,8.95
2018-12-25T06:46:59.496Z,10.57
2018-12-25T06:49:33.148Z,13.18
2018-12-25T06:52:07.615Z,9.15
2018-12-25T06:54:41.317Z,10.52
2018-12-25T06:57:14.883Z,8.85
2018-12-25T06:59:48.542Z,12.85
2018-12-25T07:02:22.118Z,11.12
2018-12-25T07:04:55.708Z,12.27
2018-12-25T07:07:29.314Z,10.07
2018-12-25T07:10:02.925Z,13.80
2018-12-25T07:12:36.511Z,10.20
2018-12-25T07:15:10.259Z,9.23
2018-12-25T07:17:44.776Z,8.63
2018-12-25T07:20:18.485Z,8.68
2018-12-25T07:22:52.087Z,7.47
2018-12-25T07:25:26.559Z,8.82
2018-12-25T07:28:00.115Z,11.18
2018-12-25T07:30:33.865Z,7.87
2018-12-25T07:33:07.509Z,7.25
2018-12-25T07:35:41.183Z,12.70
2018-12-25T07:38:14.754Z,8.25
2018-12-25T07:40:48.300Z,8.68
2018-12-25T07:43:21.974Z,11.15
2018-12-25T07:45:55.782Z,10.43
2018-12-25T07:48:29.428Z,10.02
2018-12-25T07:51:03.126Z,10.93
2018-12-25T07:53:36.708Z,6.70
2018-12-25T07:56:10.289Z,9.32
2018-12-25T07:58:43.847Z,10.57
2018-12-25T08:01:17.389Z,9.65
2018-12-25T08:03:51.083Z,9.68
2018-12-25T08:06:24.612Z,9.05
2018-12-25T08:08:58.241Z,7.43
2018-12-25T08:11:31.804Z,10.00
2018-12-25T08:14:05.407Z,6.57
2018-12-25T08:16:39.030Z,8.38
2018-12-25T08:19:12.753Z,10.13
2018-12-25T08:21:46.405Z,11.80
2018-12-25T08:24:20.162Z,13.95
2018-12-25T08:26:54.641Z,9.02
2018-12-25T08:29:28.282Z,9.98
2018-12-25T08:32:01.951Z,9.10
2018-12-25T08:34:35.787Z,11.98
2018-12-25T08:37:09.629Z,11.12
2018-12-25T08:39:43.239Z,11.70
2018-12-25T08:42:17.024Z,8.50
2018-12-25T08:44:50.655Z,12.05
2018-12-25T08:47:24.527Z,11.18
2018-12-25T08:49:58.175Z,11.00
2018-12-25T08:52:31.980Z,10.60
2018-12-25T08:55:06.535Z,13.80
2018-12-25T08:57:40.288Z,13.93
2018-12-25T09:00:14.042Z,15.65
2018-12-25T09:02:47.742Z,14.13
2018-12-25T09:05:21.319Z,18.17
2018-12-25T09:07:55.056Z,10.23
2018-12-25T09:10:28.741Z,17.12
2018-12-25T09:13:04.865Z,15.57
2018-12-25T09:15:38.700Z,15.10
2018-12-25T09:18:12.368Z,13.45
2018-12-25T09:20:45.913Z,7.95
2018-12-25T09:23:19.496Z,12.10
2018-12-25T09:25:53.280Z,12.63
2018-12-25T09:28:26.925Z,13.75
2018-12-25T09:31:00.531Z,13.05
2018-12-25T09:33:34.244Z,11.85
2018-12-25T09:36:08.530Z,11.55
2018-12-25T09:38:42.251Z,18.85
2018-12-25T09:41:15.823Z,11.10
2018-12-25T09:43:49.419Z,10.25
2018-12-25T09:46:22.998Z,13.02
2018-12-25T09:48:56.547Z,11.10
2018-12-25T09:51:30.112Z,12.40
2018-12-25T09:54:03.750Z,11.88
2018-12-25T09:56:37.353Z,11.10
2018-12-25T09:59:10.909Z,12.43
2018-12-25T10:01:44.558Z,9.30
2018-12-25T10:04:18.145Z,9.35
2018-12-25T10:06:51.726Z,10.50
2018-12-25T10:09:25.440Z,7.28
2018-12-25T10:11:58.971Z,9.68
2018-12-25T10:14:32.645Z,7.93
2018-12-25T10:17:06.288Z,11.02
2018-12-25T10:19:39.969Z,9.80
2018-12-25T10:22:14.483Z,8.00
2018-12-25T10:24:48.355Z,8.60
2018-12-25T10:27:21.962Z,12.10
2018-12-25T10:29:55.741Z,8.95
2018-12-25T10:32:29.329Z,8.90
2018-12-25T10:35:02.989Z,10.38
2018-12-25T10:37:36.566Z,11.68
2018-12-25T10:40:10.291Z,8.13
2018-12-25T10:42:43.897Z,11.48
2018-12-25T10:45:18.443Z,13.38
2018-12-25T10:47:52.221Z,9.85
2018-12-25T10:50:26.024Z,12.77
2018-12-25T10:52:59.667Z,11.70
2018-12-25T10:55:33.340Z,13.95
2018-12-25T10:58:07.853Z,14.05
2018-12-25T11:00:41.709Z,11.27
2018-12-25T11:03:15.420Z,9.25
2018-12-25T11:05:49.818Z,14.13
2018-12-25T11:08:23.540Z,16.20
2018-12-25T11:10:57.079Z,14.32
2018-12-25T11:13:30.726Z,12.57
2018-12-25T11:16:04.621Z,9.10
2018-12-25T11:18:39.024Z,8.45
2018-12-25T11:21:12.685Z,10.43
2018-12-25T11:23:46.415Z,10.70
2018-12-25T11:26:20.110Z,11.60
2018-12-25T11:28:53.772Z,9.82
2018-12-25T11:31:27.486Z,10.10
2018-12-25T11:34:02.577Z,11.45
2018-12-25T11:36:34.897Z,11.68
2018-12-25T11:39:08.400Z,6.50
2018-12-25T11:41:42.131Z,13.38
2018-12-25T11:44:15.742Z,10.70
2018-12-25T11:46:49.473Z,11.12
2018-12-25T11:49:23.199Z,11.48
2018-12-25T11:51:56.987Z,10.25
2018-12-25T11:54:30.742Z,9.32
2018-12-25T11:57:04.290Z,15.10
2018-12-25T11:59:38.084Z,12.40
2018-12-25T12:02:17.053Z,11.12
2018-12-25T12:04:46.458Z,10.30
2018-12-25T12:07:20.138Z,8.60
2018-12-25T12:09:53.861Z,10.05
2018-12-25T12:12:27.615Z,8.07
2018-12-25T12:15:01.250Z,10.48
2018-12-25T12:17:34.903Z,9.63
2018-12-25T12:20:08.465Z,7.25
2018-12-25T12:22:42.203Z,8.55
2018-12-25T12:25:15.848Z,11.90
2018-12-25T12:27:49.453Z,7.15
2018-12-25T12:30:22.982Z,9.10
2018-12-25T12:32:56.559Z,5.20
2018-12-25T12:35:30.117Z,10.65
2018-12-25T12:38:04.032Z,10.20
2018-12-25T12:40:40.483Z,8.85
2018-12-25T12:43:12.221Z,8.05
2018-12-25T12:45:45.889Z,12.20
2018-12-25T12:48:19.671Z,10.88
2018-12-25T12:50:53.399Z,8.27
2018-12-25T12:53:27.101Z,10.13
2018-12-25T12:56:00.788Z,11.65
2018-12-25T12:58:34.318Z,8.77
2018-12-25T13:01:08.034Z,11.00
2018-12-25T13:03:41.730Z,9.38
2018-12-25T13:06:16.437Z,9.52
2018-12-25T13:08:49.948Z,8.32
2018-12-25T13:11:23.505Z,9.60
2018-12-25T13:13:58.156Z,8.85
2018-12-25T13:16:31.828Z,9.05
2018-12-25T13:19:05.383Z,8.73
2018-12-25T13:21:39.121Z,11.05
2018-12-25T13:24:12.658Z,11.77
2018-12-25T13:26:47.159Z,8.27
2018-12-25T13:29:21.023Z,12.68
2018-12-25T13:31:54.672Z,10.00
2018-12-25T13:34:28.445Z,11.05
2018-12-25T13:37:02.271Z,10.27
2018-12-25T13:39:36.847Z,10.43
2018-12-25T13:42:10.648Z,10.48
2018-12-25T13:44:44.275Z,13.48
2018-12-25T13:47:18.091Z,9.75
2018-12-25T13:49:51.781Z,10.35
2018-12-25T13:52:25.356Z,9.57
2018-12-25T13:54:59.666Z,11.90
2018-12-25T13:57:33.463Z,10.30
2018-12-25T14:00:07.184Z,7.47
2018-12-25T14:02:40.774Z,14.70
2018-12-25T14:05:14.580Z,10.55
2018-12-25T14:07:48.271Z,8.55
2018-12-25T14:10:21.989Z,10.00
2018-12-25T14:12:55.558Z,10.48
2018-12-25T14:15:29.303Z,9.48
2018-12-25T14:18:02.889Z,10.88
2018-12-25T14:20:36.728Z,7.78
2018-12-25T14:23:11.380Z,9.52
2018-12-25T14:25:44.947Z,10.00
2018-12-25T14:28:18.484Z,8.73
2018-12-25T14:30:52.050Z,10.88
2018-12-25T14:33:26.446Z,8.02
2018-12-25T14:36:00.175Z,12.27
2018-12-25T14:38:33.884Z,8.70
2018-12-25T14:41:09.364Z,7.53
2018-12-25T14:43:41.201Z,10.20
2018-12-25T14:46:15.203Z,6.90
2018-12-25T14:48:49.704Z,10.70
2018-12-25T14:51:23.312Z,8.20
2018-12-25T14:53:56.932Z,8.48
2018-12-25T14:56:30.542Z,7.20
2018-12-25T14:59:04.199Z,13.07
2018-12-25T15:01:38.082Z,9.32
2018-12-25T15:04:12.559Z,7.87
2018-12-25T15:06:46.254Z,12.77
2018-12-25T15:09:19.847Z,12.65
2018-12-25T15:11:53.679Z,17.50
2018-12-25T15:14:27.355Z,7.28
2018-12-25T15:17:00.975Z,13.35
2018-12-25T15:19:35.482Z,11.50
2018-12-25T15:22:09.559Z,5.32
2018-12-25T15:24:43.307Z,7.30
2018-12-25T15:27:17.096Z,4.40
2018-12-25T15:29:50.747Z,9.73
2018-12-25T15:32:24.300Z,8.70
2018-12-25T15:34:58.618Z,7.72
2018-12-25T15:37:32.942Z,8.07
2018-12-25T15:40:07.005Z,10.30
2018-12-25T15:42:40.831Z,10.50
2018-12-25T15:45:14.582Z,7.47
2018-12-25T15:47:48.399Z,9.93
2018-12-25T15:50:22.141Z,11.90
2018-12-25T15:52:55.694Z,10.82
2018-12-25T15:55:29.474Z,10.52
2018-12-25T15:58:03.215Z,10.68
2018-12-25T16:00:36.846Z,13.35
2018-12-25T16:03:10.675Z,9.68
2018-12-25T16:05:44.496Z,10.43
2018-12-25T16:08:18.167Z,8.77
2018-12-25T16:10:52.581Z,9.05
2018-12-25T16:13:27.052Z,11.57
2018-12-25T16:16:00.749Z,9.80
2018-12-25T16:18:34.313Z,7.35
2018-12-25T16:21:08.056Z,9.98
2018-12-25T16:23:45.476Z,11.05
2018-12-25T16:26:16.496Z,9.80
2018-12-25T16:28:50.247Z,10.20
2018-12-25T16:31:23.876Z,15.13
2018-12-25T16:33:57.676Z,10.00
2018-12-25T16:36:31.456Z,13.30
2018-12-25T16:39:05.194Z,8.38
2018-12-25T16:41:38.831Z,7.60
2018-12-25T16:44:12.491Z,9.15
2018-12-25T16:46:46.302Z,8.35
2018-12-25T16:49:20.009Z,11.38
2018-12-25T16:51:53.710Z,9.77
2018-12-25T16:54:27.432Z,8.25
2018-12-25T16:57:01.967Z,12.88
2018-12-25T16:59:35.595Z,9.43
2018-12-25T17:02:09.310Z,13.77
2018-12-25T17:04:42.876Z,12.60
2018-12-25T17:07:16.581Z,10.43
2018-12-25T17:09:50.326Z,14.85
2018-12-25T17:12:24.666Z,10.65
2018-12-25T17:14:58.330Z,15.68
2018-12-25T17:17:31.996Z,12.82
2018-12-25T17:20:05.587Z,10.60
2018-12-25T17:22:39.113Z,9.65
2018-12-25T17:25:12.799Z,12.25
2018-12-25T17:27:46.586Z,13.00
2018-12-25T17:30:20.208Z,10.18
2018-12-25T17:32:55.571Z,7.80
2018-12-25T17:35:27.520Z,13.38
2018-12-25T17:38:01.099Z,11.27
2018-12-25T17:40:34.939Z,10.82
2018-12-25T17:43:08.628Z,11.55
2018-12-25T17:45:42.215Z,15.38
2018-12-25T17:48:16.006Z,12.40
2018-12-25T17:50:49.725Z,12.43
2018-12-25T17:53:24.064Z,12.18
2018-12-25T17:55:57.785Z,12.65
2018-12-25T17:58:32.055Z,17.48
2018-12-25T18:01:06.430Z,13.30
2018-12-25T18:03:40.100Z,9.30
2018-12-25T18:06:13.765Z,12.25
2018-12-25T18:08:47.584Z,14.23
2018-12-25T18:11:21.296Z,12.63
2018-12-25T18:13:55.329Z,14.80
2018-12-25T18:16:30.124Z,15.93
2018-12-25T18:19:02.651Z,16.25
2018-12-25T18:21:36.228Z,18.58
2018-12-25T18:24:09.861Z,13.62
2018-12-25T18:26:44.395Z,12.68
2018-12-25T18:29:18.053Z,15.02
2018-12-25T18:31:51.590Z,13.27
2018-12-25T18:34:25.141Z,13.95
2018-12-25T18:36:59.579Z,14.60
2018-12-25T18:39:33.379Z,21.35
2018-12-25T18:42:06.921Z,12.00
2018-12-25T18:44:40.625Z,15.15
2018-12-25T18:47:14.206Z,14.27
2018-12-25T18:49:48.677Z,15.32
2018-12-25T18:52:22.999Z,15.70
2018-12-25T18:54:57.365Z,16.25
2018-12-25T18:57:30.911Z,19.92
2018-12-25T19:00:04.544Z,17.40
2018-12-25T19:02:38.020Z,17.83
2018-12-25T19:05:11.671Z,11.68
2018-12-25T19:07:45.418Z,22.65
2018-12-25T19:10:18.959Z,16.80
2018-12-25T19:12:52.688Z,12.23
2018-12-25T19:15:27.584Z,13.68
2018-12-25T19:18:01.291Z,13.50
2018-12-25T19:20:35.811Z,12.75
2018-12-25T19:23:09.616Z,13.75
2018-12-25T19:25:43.171Z,15.57
2018-12-25T19:28:16.790Z,17.27
2018-12-25T19:30:50.427Z,15.10
2018-12-25T19:33:24.007Z,17.10
2018-12-25T19:35:57.604Z,19.42
2018-12-25T19:38:31.374Z,13.40
2018-12-25T19:41:04.995Z,15.57
2018-12-25T19:43:38.626Z,14.60
2018-12-25T19:46:12.447Z,15.27
2018-12-25T19:48:46.956Z,14.43
2018-12-25T19:51:20.694Z,12.13
2018-12-25T19:53:55.176Z,15.20
2018-12-25T19:56:29.619Z,14.90
2018-12-25T19:59:03.324Z,18.37
2018-12-25T20:01:37.108Z,15.80
2018-12-25T20:04:10.685Z,9.95
2018-12-25T20:06:52.115Z,13.45
2018-12-25T20:09:52.483Z,22.15
2018-12-25T20:12:50.066Z,17.45
2018-12-25T20:15:29.675Z,14.32
2018-12-25T20:21:26.401Z,15.68
2018-12-25T20:24:19.487Z,17.35
2018-12-25T20:27:04.120Z,16.95
2018-12-25T20:29:58.666Z,15.10
2018-12-25T20:32:43.930Z,14.07
2018-12-25T20:35:23.183Z,19.45
2018-12-25T20:41:11.040Z,16.42
2018-12-25T20:44:11.263Z,21.67
2018-12-25T20:47:00.591Z,17.30
2018-12-25T20:49:55.045Z,18.42
2018-12-25T20:55:49.822Z,22.93
2018-12-25T20:58:31.161Z,18.25
2018-12-25T21:01:08.518Z,16.92
2018-12-25T21:07:04.907Z,18.83
2018-12-25T21:12:57.648Z,23.05
2018-12-25T21:18:46.175Z,22.37
2018-12-25T21:21:19.800Z,19.95
2018-12-25T21:24:05.678Z,18.83
2018-12-25T21:26:51.096Z,18.92
2018-12-25T21:29:24.813Z,17.65
2018-12-25T21:31:58.532Z,16.60
2018-12-25T21:34:32.129Z,18.12
2018-12-25T21:37:05.752Z,19.20
2018-12-25T21:39:39.394Z,15.55
2018-12-25T21:42:13.911Z,16.65
2018-12-25T21:44:47.744Z,16.45
2018-12-25T21:47:21.376Z,13.35
2018-12-25T21:49:55.893Z,19.00
2018-12-25T21:52:29.454Z,19.45
2018-12-25T21:55:03.179Z,13.10
2018-12-25T21:57:37.134Z,14.85
2018-12-25T22:00:10.699Z,16.45
2018-12-25T22:02:44.296Z,18.30
2018-12-25T22:05:17.888Z,17.73
2018-12-25T22:07:51.434Z,17.05
2018-12-25T22:10:25.057Z,16.95
2018-12-25T22:12:59.395Z,17.25
2018-12-25T22:15:33.164Z,19.02
2018-12-25T22:18:06.733Z,15.68
2018-12-25T22:20:40.296Z,15.02
2018-12-25T22:23:13.927Z,19.48
2018-12-25T22:25:47.501Z,12.93
2018-12-25T22:28:21.180Z,14.40
2018-12-25T22:30:54.677Z,19.08
2018-12-25T22:33:29.265Z,12.10
2018-12-25T22:36:02.855Z,13.25
2018-12-25T22:38:36.618Z,14.40
2018-12-25T22:41:10.155Z,16.20
2018-12-25T22:43:43.869Z,16.02
2018-12-25T22:46:17.867Z,18.37
2018-12-25T22:48:51.603Z,20.75
2018-12-25T22:51:25.421Z,16.90
2018-12-25T22:53:59.212Z,13.73
2018-12-25T22:56:32.983Z,11.15
2018-12-25T22:59:06.848Z,13.45
2018-12-25T23:01:40.607Z,18.52
2018-12-25T23:04:14.369Z,14.73
2018-12-25T23:06:48.078Z,14.00
2018-12-25T23:09:21.733Z,14.45
2018-12-25T23:11:55.390Z,13.75
2018-12-25T23:14:28.991Z,15.75
2018-12-25T23:17:02.751Z,12.95
2018-12-25T23:19:36.348Z,14.65
2018-12-25T23:22:10.140Z,13.65
2018-12-25T23:24:43.857Z,14.95
2018-12-25T23:27:17.367Z,15.68
2018-12-25T23:29:51.020Z,14.60
2018-12-25T23:32:25.381Z,14.77
2018-12-25T23:34:59.205Z,17.15
2018-12-25T23:37:32.769Z,13.10
2018-12-25T23:40:06.325Z,15.30
2018-12-25T23:42:39.940Z,18.75
2018-12-25T23:45:13.605Z,19.62
2018-12-25T23:47:47.207Z,13.48
2018-12-25T23:50:21.045Z,12.43
2018-12-25T23:52:54.818Z,19.70
2018-12-25T23:55:28.671Z,15.60
2018-12-25T23:58:03.113Z,18.95
